Terminal Aerodrome Forecast
Issued by NWS Twin Cities, MN

Home | Current Version | Previous Version | Graphics & Text | Print | Product List | Glossary On
Versions: 1 2 3 4 5 6 7 8 9 10 11 12 13 14 15 16 17 18 19 20 21 22 23 24
741
FTUS43 KMPX 212320
TAFEAU
TAF
KEAU 212320Z 2200/2224 17009KT P6SM SCT015 BKN050 BKN090
     FM220600 10004KT 4SM BR BKN050
     FM220900 08004KT 1/2SM FG BKN003
     FM221400 01005KT P6SM BKN007
     FM221800 24005KT P6SM BKN020 OVC050=

USA.gov is the U.S. government's official web portal to all federal, state and local government web resources and services.